createdAt,value
2023-05-08T00:01:31.523Z,49.45
2023-05-08T00:03:58.848Z,51.78
2023-05-08T00:06:27.697Z,49.33
2023-05-08T00:08:55.732Z,52.88
2023-05-08T00:11:22.797Z,49.47
2023-05-08T00:13:49.978Z,52.63
2023-05-08T00:16:17.226Z,50.03
2023-05-08T00:18:44.350Z,51.42
2023-05-08T00:21:11.449Z,49.95
2023-05-08T00:23:38.573Z,49.92
2023-05-08T00:26:05.833Z,50.47
2023-05-08T00:28:32.911Z,49.17
2023-05-08T00:31:02.931Z,47.40
2023-05-08T00:33:30.112Z,50.80
2023-05-08T00:36:01.563Z,48.95
2023-05-08T00:38:31.751Z,49.85
2023-05-08T00:40:58.921Z,50.85
2023-05-08T00:43:28.274Z,51.28
2023-05-08T00:46:01.553Z,47.83
2023-05-08T00:48:34.309Z,52.35
2023-05-08T00:51:04.459Z,53.15
2023-05-08T00:53:33.816Z,52.53
2023-05-08T00:56:00.952Z,50.72
2023-05-08T00:58:28.734Z,55.10
2023-05-08T01:00:57.062Z,52.13
2023-05-08T01:03:25.163Z,54.17
2023-05-08T01:05:52.502Z,55.30
2023-05-08T01:08:19.665Z,55.22
2023-05-08T01:11:13.479Z,56.05
2023-05-08T01:14:13.591Z,55.33
2023-05-08T01:17:03.206Z,59.30
2023-05-08T01:19:59.416Z,56.20
2023-05-08T01:22:44.581Z,58.10
2023-05-08T01:25:33.534Z,58.78
2023-05-08T01:28:38.446Z,58.17
2023-05-08T01:31:13.330Z,58.35
2023-05-08T01:34:05.361Z,59.42
2023-05-08T01:36:56.761Z,64.63
2023-05-08T01:39:57.279Z,65.75
2023-05-08T01:42:42.138Z,65.18
2023-05-08T01:45:27.012Z,66.10
2023-05-08T01:48:11.112Z,65.87
2023-05-08T01:50:46.396Z,64.95
2023-05-08T01:53:28.044Z,64.63
2023-05-08T01:56:00.152Z,66.28
2023-05-08T01:58:28.229Z,68.45
2023-05-08T02:00:56.764Z,68.53
2023-05-08T02:03:25.389Z,69.57
2023-05-08T02:05:55.006Z,68.57
2023-05-08T02:08:22.782Z,66.70
2023-05-08T02:10:52.060Z,66.18
2023-05-08T02:13:21.564Z,66.78
2023-05-08T02:15:51.095Z,67.72
2023-05-08T02:18:22.293Z,70.55
2023-05-08T02:20:52.259Z,69.18
2023-05-08T02:23:21.002Z,70.32
2023-05-08T02:25:49.793Z,71.88
2023-05-08T02:28:18.246Z,72.85
2023-05-08T02:30:46.201Z,70.47
2023-05-08T02:33:14.894Z,71.47
2023-05-08T02:35:45.330Z,69.43
2023-05-08T02:38:14.465Z,68.47
2023-05-08T02:40:46.600Z,67.20
2023-05-08T02:43:14.159Z,68.65
2023-05-08T02:45:58.466Z,69.25
2023-05-08T02:48:39.296Z,68.28
2023-05-08T02:51:24.123Z,70.95
2023-05-08T02:54:12.054Z,71.30
2023-05-08T02:56:53.660Z,69.93
2023-05-08T02:59:27.681Z,69.78
2023-05-08T03:02:07.647Z,71.15
2023-05-08T03:04:56.491Z,71.15
2023-05-08T03:07:26.462Z,71.78
2023-05-08T03:10:02.005Z,70.25
2023-05-08T03:12:33.194Z,75.25
2023-05-08T03:15:28.062Z,70.63
2023-05-08T03:18:03.244Z,72.13
2023-05-08T03:20:36.678Z,69.18
2023-05-08T03:23:06.502Z,67.45
2023-05-08T03:25:35.895Z,67.82
2023-05-08T03:28:05.299Z,66.57
2023-05-08T03:30:36.591Z,64.88
2023-05-08T03:33:05.692Z,67.75
2023-05-08T03:35:34.039Z,64.32
2023-05-08T03:38:01.446Z,65.07
2023-05-08T03:40:29.018Z,61.70
2023-05-08T03:42:57.422Z,64.38
2023-05-08T03:45:25.902Z,63.35
2023-05-08T03:47:54.284Z,66.15
2023-05-08T03:50:22.232Z,62.95
2023-05-08T03:52:50.463Z,62.80
2023-05-08T03:55:17.524Z,64.00
2023-05-08T03:58:14.970Z,63.67
2023-05-08T04:01:06.533Z,61.08
2023-05-08T04:04:04.374Z,60.80
2023-05-08T04:06:50.922Z,60.00
2023-05-08T04:09:30.526Z,57.28
2023-05-08T04:12:18.109Z,54.92
2023-05-08T04:14:50.854Z,53.25
2023-05-08T04:17:28.397Z,55.92
2023-05-08T04:20:02.914Z,55.08
2023-05-08T04:22:33.428Z,56.50
2023-05-08T04:25:04.475Z,55.38
2023-05-08T04:27:32.301Z,59.65
2023-05-08T04:30:00.088Z,60.00
2023-05-08T04:32:31.428Z,61.00
2023-05-08T04:34:59.951Z,58.75
2023-05-08T04:37:31.358Z,56.38
2023-05-08T04:39:59.532Z,55.67
2023-05-08T04:42:27.475Z,55.30
2023-05-08T04:44:55.126Z,53.83
2023-05-08T04:47:24.253Z,53.50
2023-05-08T04:49:51.796Z,52.88
2023-05-08T04:52:18.929Z,52.35
2023-05-08T04:54:45.953Z,51.70
2023-05-08T04:57:13.612Z,54.25
2023-05-08T04:59:40.773Z,54.75
2023-05-08T05:02:09.171Z,56.08
2023-05-08T05:04:37.077Z,56.17
2023-05-08T05:07:04.493Z,57.75
2023-05-08T05:09:31.663Z,56.05
2023-05-08T05:11:58.634Z,56.38
2023-05-08T05:14:25.905Z,54.10
2023-05-08T05:16:52.951Z,54.15
2023-05-08T05:19:20.174Z,53.58
2023-05-08T05:21:47.260Z,56.53
2023-05-08T05:24:14.716Z,56.40
2023-05-08T05:26:41.928Z,54.22
2023-05-08T05:29:09.332Z,54.50
2023-05-08T05:31:36.672Z,54.15
2023-05-08T05:34:06.826Z,53.08
2023-05-08T05:36:34.237Z,53.25
2023-05-08T05:39:01.357Z,52.50
2023-05-08T05:41:28.585Z,55.92
2023-05-08T05:43:55.560Z,55.33
2023-05-08T05:46:26.985Z,57.00
2023-05-08T05:48:54.309Z,58.70
2023-05-08T05:51:21.949Z,54.78
2023-05-08T05:53:49.192Z,56.63
2023-05-08T05:56:16.338Z,55.40
2023-05-08T05:58:45.391Z,55.78
2023-05-08T06:01:12.639Z,56.90
2023-05-08T06:03:41.019Z,53.00
2023-05-08T06:06:08.310Z,53.97
2023-05-08T06:08:35.663Z,51.53
2023-05-08T06:11:02.947Z,49.70
2023-05-08T06:13:30.258Z,45.13
2023-05-08T06:15:57.665Z,41.97
2023-05-08T06:18:24.870Z,42.33
2023-05-08T06:21:00.001Z,43.00
2023-05-08T06:23:27.541Z,37.73
2023-05-08T06:25:54.634Z,35.78
2023-05-08T06:28:24.173Z,35.33
2023-05-08T06:30:51.157Z,33.55
2023-05-08T06:33:19.338Z,34.45
2023-05-08T06:35:48.008Z,34.33
2023-05-08T06:38:15.709Z,32.83
2023-05-08T06:40:46.579Z,31.10
2023-05-08T06:43:14.087Z,32.15
2023-05-08T06:45:41.242Z,30.27
2023-05-08T06:48:08.640Z,30.48
2023-05-08T06:50:39.497Z,32.13
2023-05-08T06:53:07.516Z,32.00
2023-05-08T06:55:34.682Z,30.70
2023-05-08T06:58:01.971Z,31.63
2023-05-08T07:00:29.256Z,31.80
2023-05-08T07:02:56.312Z,32.30
2023-05-08T07:05:23.595Z,30.73
2023-05-08T07:07:50.668Z,32.45
2023-05-08T07:10:20.056Z,36.78
2023-05-08T07:12:47.106Z,33.47
2023-05-08T07:15:24.545Z,36.97
2023-05-08T07:17:52.314Z,40.13
2023-05-08T07:20:19.399Z,41.58
2023-05-08T07:22:46.762Z,50.58
2023-05-08T07:25:14.029Z,52.63
2023-05-08T07:27:41.348Z,50.97
2023-05-08T07:30:08.882Z,51.17
2023-05-08T07:32:36.510Z,55.30
2023-05-08T07:35:04.097Z,55.53
2023-05-08T07:37:31.553Z,55.53
2023-05-08T07:39:58.815Z,55.30
2023-05-08T07:42:26.062Z,55.00
2023-05-08T07:44:55.182Z,54.03
2023-05-08T07:47:22.968Z,55.47
2023-05-08T07:49:50.000Z,54.30
2023-05-08T07:52:17.140Z,50.95
2023-05-08T07:54:44.222Z,52.03
2023-05-08T07:57:11.870Z,53.67
2023-05-08T07:59:38.861Z,52.70
2023-05-08T08:02:05.994Z,53.33
2023-05-08T08:04:34.287Z,55.58
2023-05-08T08:07:04.171Z,56.75
2023-05-08T08:09:31.428Z,55.60
2023-05-08T08:11:58.886Z,54.15
2023-05-08T08:14:26.048Z,53.83
2023-05-08T08:16:53.140Z,51.15
2023-05-08T08:19:20.486Z,52.22
2023-05-08T08:21:47.539Z,56.03
2023-05-08T08:24:15.955Z,57.92
2023-05-08T08:26:42.968Z,58.97
2023-05-08T08:29:09.918Z,59.35
2023-05-08T08:31:36.896Z,53.47
2023-05-08T08:34:04.201Z,53.05
2023-05-08T08:36:32.707Z,53.53
2023-05-08T08:38:59.722Z,51.22
2023-05-08T08:41:28.184Z,48.42
2023-05-08T08:43:55.857Z,44.95
2023-05-08T08:46:28.232Z,44.90
2023-05-08T08:48:57.234Z,44.72
2023-05-08T08:51:30.275Z,46.75
2023-05-08T08:54:14.509Z,45.97
2023-05-08T08:56:44.886Z,46.00
2023-05-08T08:59:13.521Z,44.28
2023-05-08T09:01:44.349Z,44.17
2023-05-08T09:04:12.037Z,45.70
2023-05-08T09:06:41.652Z,44.60
2023-05-08T09:09:08.930Z,45.05
2023-05-08T09:11:37.739Z,44.00
2023-05-08T09:14:04.736Z,43.58
2023-05-08T09:16:31.827Z,42.90
2023-05-08T09:18:59.312Z,45.53
2023-05-08T09:21:29.074Z,44.58
2023-05-08T09:24:03.706Z,45.22
2023-05-08T09:26:49.824Z,43.45
2023-05-08T09:29:24.536Z,42.05
2023-05-08T09:31:53.511Z,43.70
2023-05-08T09:34:28.563Z,45.47
2023-05-08T09:36:57.046Z,45.13
2023-05-08T09:39:25.724Z,42.97
2023-05-08T09:42:03.414Z,43.00
2023-05-08T09:44:48.383Z,41.75
2023-05-08T09:47:23.813Z,41.67
2023-05-08T09:50:11.398Z,38.60
2023-05-08T09:52:39.628Z,35.58
2023-05-08T09:55:09.398Z,35.17
2023-05-08T09:57:51.543Z,38.22
2023-05-08T10:00:18.886Z,37.17
2023-05-08T10:02:58.177Z,36.85
2023-05-08T10:05:27.875Z,33.97
2023-05-08T10:07:55.447Z,31.30
2023-05-08T10:10:31.061Z,29.25
2023-05-08T10:12:59.383Z,27.80
2023-05-08T10:15:31.458Z,26.48
2023-05-08T10:18:06.997Z,27.55
2023-05-08T10:20:40.560Z,25.73
2023-05-08T10:23:11.584Z,24.52
2023-05-08T10:25:47.156Z,25.15
2023-05-08T10:28:18.631Z,24.45
2023-05-08T10:30:49.374Z,25.17
2023-05-08T10:33:21.181Z,25.40
2023-05-08T10:35:48.974Z,25.60
2023-05-08T10:38:17.412Z,26.13
2023-05-08T10:40:46.258Z,26.00
2023-05-08T10:43:13.415Z,24.05
2023-05-08T10:45:40.898Z,24.13
2023-05-08T10:48:14.035Z,25.23
2023-05-08T10:50:46.982Z,25.45
2023-05-08T10:53:31.858Z,25.90
2023-05-08T10:55:59.344Z,26.88
2023-05-08T10:58:31.572Z,27.35
2023-05-08T11:01:06.751Z,26.70
2023-05-08T11:06:10.138Z,26.40
2023-05-08T11:08:51.915Z,26.98
2023-05-08T11:11:29.691Z,26.58
2023-05-08T11:14:00.221Z,25.08
2023-05-08T11:17:02.744Z,25.65
2023-05-08T11:19:31.159Z,26.75
2023-05-08T11:22:20.924Z,27.92
2023-05-08T11:24:54.067Z,29.38
2023-05-08T11:27:41.307Z,29.50
2023-05-08T11:30:20.967Z,29.35
2023-05-08T11:33:16.147Z,29.35
2023-05-08T11:35:47.923Z,29.17
2023-05-08T11:38:29.620Z,26.95
2023-05-08T11:40:59.303Z,26.90
2023-05-08T11:43:38.179Z,24.83
2023-05-08T11:46:06.444Z,24.38
2023-05-08T11:48:33.647Z,23.35
2023-05-08T11:51:01.360Z,24.05
2023-05-08T11:53:31.750Z,22.73
2023-05-08T11:56:00.673Z,19.52
2023-05-08T11:58:27.786Z,19.33
2023-05-08T12:00:56.549Z,19.73
2023-05-08T12:03:27.847Z,17.52
2023-05-08T12:06:00.012Z,17.38
2023-05-08T12:08:27.410Z,17.20
2023-05-08T12:10:56.938Z,20.65
2023-05-08T12:13:26.084Z,20.42
2023-05-08T12:15:56.343Z,19.67
2023-05-08T12:18:26.396Z,19.40
2023-05-08T12:20:55.008Z,16.23
2023-05-08T12:23:22.361Z,14.77
2023-05-08T12:25:56.058Z,14.70
2023-05-08T12:28:23.471Z,14.45
2023-05-08T12:30:50.913Z,15.57
2023-05-08T12:33:19.785Z,15.65
2023-05-08T12:35:47.151Z,16.95
2023-05-08T12:38:14.397Z,15.55
2023-05-08T12:40:43.900Z,15.88
2023-05-08T12:43:11.658Z,15.52
2023-05-08T12:45:40.473Z,15.77
2023-05-08T12:48:09.898Z,15.50
2023-05-08T12:50:39.051Z,15.55
2023-05-08T12:53:10.738Z,16.02
2023-05-08T12:55:39.931Z,15.23
2023-05-08T12:58:15.868Z,13.70
2023-05-08T13:00:51.999Z,15.02
2023-05-08T13:05:52.493Z,13.25
2023-05-08T13:08:20.174Z,13.20
2023-05-08T13:10:50.952Z,13.35
2023-05-08T13:15:54.482Z,12.57
2023-05-08T13:18:24.932Z,11.80
2023-05-08T13:20:55.190Z,11.40
2023-05-08T13:23:22.701Z,10.90
2023-05-08T13:25:50.832Z,10.30
2023-05-08T13:28:17.962Z,9.77
2023-05-08T13:30:45.139Z,9.32
2023-05-08T13:33:12.325Z,9.00
2023-05-08T13:35:39.482Z,10.50
2023-05-08T13:38:06.566Z,9.73
2023-05-08T13:40:35.088Z,9.73
2023-05-08T13:43:02.177Z,9.90
2023-05-08T13:45:29.416Z,10.20
2023-05-08T13:47:56.837Z,9.90
2023-05-08T13:50:24.071Z,9.43
2023-05-08T13:52:53.225Z,9.30
2023-05-08T13:55:23.273Z,9.75
2023-05-08T13:57:50.878Z,8.60
2023-05-08T14:00:18.683Z,9.45
2023-05-08T14:02:46.168Z,9.88
2023-05-08T14:05:13.817Z,8.45
2023-05-08T14:07:41.541Z,8.13
2023-05-08T14:10:09.491Z,7.90
2023-05-08T14:12:36.858Z,7.53
2023-05-08T14:15:07.752Z,7.38
2023-05-08T14:17:35.423Z,7.88
2023-05-08T14:20:02.465Z,8.10
2023-05-08T14:22:29.561Z,8.05
2023-05-08T14:24:56.779Z,7.97
2023-05-08T14:27:23.936Z,7.88
2023-05-08T14:29:51.053Z,7.50
2023-05-08T14:32:18.067Z,7.15
2023-05-08T14:34:45.109Z,7.95
2023-05-08T14:37:13.337Z,7.85
2023-05-08T14:39:40.692Z,7.28
2023-05-08T14:44:38.214Z,7.13
2023-05-08T14:47:05.632Z,6.90
2023-05-08T14:52:03.321Z,6.80
2023-05-08T14:54:31.620Z,6.22
2023-05-08T14:56:58.847Z,7.45
2023-05-08T14:59:26.070Z,7.70
2023-05-08T15:01:53.104Z,9.85
2023-05-08T15:04:20.500Z,10.60
2023-05-08T15:06:47.708Z,10.70
2023-05-08T15:09:16.699Z,10.50
2023-05-08T15:11:44.517Z,10.32
2023-05-08T15:14:11.807Z,11.00
2023-05-08T15:16:38.998Z,11.20
2023-05-08T15:19:06.231Z,11.15
2023-05-08T15:21:33.346Z,12.20
2023-05-08T15:24:00.689Z,12.90
2023-05-08T15:26:27.965Z,13.65
2023-05-08T15:28:55.106Z,13.50
2023-05-08T15:31:22.143Z,14.25
2023-05-08T15:33:49.308Z,16.77
2023-05-08T15:36:16.462Z,17.60
2023-05-08T15:38:43.616Z,17.95
2023-05-08T15:41:15.129Z,18.58
2023-05-08T15:43:45.857Z,18.98
2023-05-08T15:46:13.048Z,19.08
2023-05-08T15:48:40.688Z,18.88
2023-05-08T15:51:07.680Z,18.83
2023-05-08T15:53:35.453Z,17.30
2023-05-08T15:56:02.616Z,16.70
2023-05-08T15:58:29.923Z,16.50
2023-05-08T16:00:57.949Z,15.73
2023-05-08T16:03:25.147Z,15.88
2023-05-08T16:05:52.491Z,16.27
2023-05-08T16:08:19.539Z,16.33
2023-05-08T16:10:46.714Z,15.68
2023-05-08T16:13:13.865Z,16.58
2023-05-08T16:15:41.837Z,15.63
2023-05-08T16:18:09.147Z,16.23
2023-05-08T16:20:36.505Z,16.83
2023-05-08T16:23:03.761Z,16.77
2023-05-08T16:25:31.310Z,16.20
2023-05-08T16:27:59.351Z,15.80
2023-05-08T16:30:26.500Z,15.98
2023-05-08T16:32:53.473Z,14.98
2023-05-08T16:35:20.767Z,17.35
2023-05-08T16:37:47.885Z,16.00
2023-05-08T16:40:15.019Z,14.48
2023-05-08T16:42:41.977Z,12.70
2023-05-08T16:45:09.974Z,12.02
2023-05-08T16:47:37.188Z,13.07
2023-05-08T16:50:07.164Z,12.95
2023-05-08T16:52:34.426Z,12.27
2023-05-08T16:55:01.501Z,12.70
2023-05-08T16:57:28.859Z,12.48
2023-05-08T16:59:55.909Z,11.95
2023-05-08T17:02:23.088Z,12.13
2023-05-08T17:04:50.734Z,12.10
2023-05-08T17:07:19.882Z,11.70
2023-05-08T17:09:53.043Z,12.90
2023-05-08T17:12:20.296Z,11.00
2023-05-08T17:14:47.436Z,16.85
2023-05-08T17:17:14.617Z,12.32
2023-05-08T17:19:43.345Z,12.80
2023-05-08T17:22:10.740Z,11.50
2023-05-08T17:24:38.160Z,11.85
2023-05-08T17:27:08.989Z,11.80
2023-05-08T17:29:35.915Z,12.80
2023-05-08T17:32:03.271Z,12.27
2023-05-08T17:34:30.583Z,12.30
2023-05-08T17:36:57.782Z,12.65
2023-05-08T17:39:25.038Z,13.55
2023-05-08T17:41:52.268Z,12.90
2023-05-08T17:44:19.374Z,12.60
2023-05-08T17:46:46.660Z,12.98
2023-05-08T17:49:15.426Z,13.98
2023-05-08T17:51:43.511Z,14.73
2023-05-08T17:54:10.694Z,14.73
2023-05-08T17:56:37.858Z,14.05
2023-05-08T17:59:05.349Z,15.05
2023-05-08T18:01:32.589Z,13.02
2023-05-08T18:04:00.038Z,15.80
2023-05-08T18:06:27.220Z,14.15
2023-05-08T18:08:54.267Z,13.13
2023-05-08T18:11:23.283Z,12.98
2023-05-08T18:13:52.326Z,14.57
2023-05-08T18:16:21.375Z,13.75
2023-05-08T18:18:49.782Z,14.10
2023-05-08T18:21:16.913Z,14.10
2023-05-08T18:23:44.191Z,14.25
2023-05-08T18:26:16.035Z,14.27
2023-05-08T18:28:43.932Z,14.73
2023-05-08T18:31:11.934Z,14.35
2023-05-08T18:33:39.248Z,14.55
2023-05-08T18:36:07.316Z,14.75
2023-05-08T18:38:35.077Z,15.38
2023-05-08T18:41:03.506Z,14.75
2023-05-08T18:43:30.685Z,14.38
2023-05-08T18:45:59.234Z,13.00
2023-05-08T18:48:26.887Z,13.60
2023-05-08T18:50:56.059Z,12.20
2023-05-08T18:53:23.019Z,10.43
2023-05-08T18:55:50.031Z,9.98
2023-05-08T18:58:17.212Z,9.13
2023-05-08T19:00:44.140Z,8.93
2023-05-08T19:03:11.317Z,8.85
2023-05-08T19:05:38.381Z,9.15
2023-05-08T19:08:05.480Z,9.40
2023-05-08T19:10:32.542Z,9.48
2023-05-08T19:13:02.302Z,9.85
2023-05-08T19:15:29.774Z,9.45
2023-05-08T19:17:56.796Z,9.15
2023-05-08T19:20:23.924Z,9.93
2023-05-08T19:22:51.065Z,8.45
2023-05-08T19:25:18.196Z,8.52
2023-05-08T19:27:45.291Z,8.15
2023-05-08T19:30:13.039Z,8.48
2023-05-08T19:32:40.114Z,9.15
2023-05-08T19:35:08.460Z,8.13
2023-05-08T19:37:35.891Z,8.60
2023-05-08T19:40:03.065Z,8.10
2023-05-08T19:42:30.112Z,8.75
2023-05-08T19:44:57.269Z,8.82
2023-05-08T19:47:25.844Z,8.38
2023-05-08T19:49:53.020Z,8.70
2023-05-08T19:52:20.262Z,9.25
2023-05-08T19:54:47.269Z,9.02
2023-05-08T19:57:14.382Z,8.55
2023-05-08T19:59:41.595Z,8.93
2023-05-08T20:02:08.779Z,9.48
2023-05-08T20:04:48.593Z,8.95
2023-05-08T20:07:22.903Z,9.32
2023-05-08T20:09:50.049Z,9.68
2023-05-08T20:12:17.218Z,8.82
2023-05-08T20:14:44.474Z,9.23
2023-05-08T20:17:11.497Z,8.77
2023-05-08T20:19:38.739Z,8.20
2023-05-08T20:22:05.934Z,8.65
2023-05-08T20:24:33.072Z,9.07
2023-05-08T20:27:00.189Z,8.50
2023-05-08T20:29:27.223Z,8.88
2023-05-08T20:31:54.521Z,8.65
2023-05-08T20:34:24.729Z,8.75
2023-05-08T20:36:51.883Z,9.15
2023-05-08T20:39:19.039Z,9.23
2023-05-08T20:41:46.201Z,8.40
2023-05-08T20:44:17.469Z,8.50
2023-05-08T20:46:44.665Z,8.73
2023-05-08T20:49:11.698Z,8.60
2023-05-08T20:51:38.923Z,9.18
2023-05-08T20:54:06.080Z,9.40
2023-05-08T20:56:35.809Z,9.60
2023-05-08T20:59:03.318Z,8.75
2023-05-08T21:01:30.644Z,9.30
2023-05-08T21:03:57.656Z,10.00
2023-05-08T21:06:24.762Z,10.15
2023-05-08T21:08:51.866Z,9.77
2023-05-08T21:11:18.918Z,9.95
2023-05-08T21:13:45.920Z,10.43
2023-05-08T21:16:13.018Z,9.93
2023-05-08T21:18:40.297Z,9.82
2023-05-08T21:21:18.178Z,9.73
2023-05-08T21:23:45.137Z,9.98
2023-05-08T21:26:12.648Z,10.88
2023-05-08T21:28:39.658Z,11.63
2023-05-08T21:31:06.848Z,11.52
2023-05-08T21:33:34.023Z,11.43
2023-05-08T21:36:01.441Z,12.57
2023-05-08T21:38:28.794Z,12.50
2023-05-08T21:40:55.938Z,11.70
2023-05-08T21:43:23.145Z,11.75
2023-05-08T21:45:50.198Z,12.30
2023-05-08T21:48:17.617Z,11.77
2023-05-08T21:50:44.616Z,11.80
2023-05-08T21:53:11.696Z,12.18
2023-05-08T21:55:38.720Z,12.30
2023-05-08T21:58:05.905Z,11.82
2023-05-08T22:00:32.926Z,11.80
2023-05-08T22:03:00.500Z,11.80
2023-05-08T22:05:27.720Z,10.82
2023-05-08T22:07:54.904Z,11.23
2023-05-08T22:10:22.163Z,12.05
2023-05-08T22:12:49.317Z,11.07
2023-05-08T22:15:29.216Z,11.88
2023-05-08T22:17:58.120Z,11.68
2023-05-08T22:20:25.679Z,11.75
2023-05-08T22:22:52.826Z,11.38
2023-05-08T22:25:22.078Z,12.55
2023-05-08T22:27:49.433Z,10.38
2023-05-08T22:30:16.613Z,11.85
2023-05-08T22:32:43.764Z,11.48
2023-05-08T22:35:11.039Z,13.25
2023-05-08T22:37:38.001Z,12.13
2023-05-08T22:40:05.744Z,13.05
2023-05-08T22:42:32.877Z,13.02
2023-05-08T22:44:59.888Z,12.55
2023-05-08T22:47:28.400Z,13.55
2023-05-08T22:49:55.589Z,14.25
2023-05-08T22:52:22.677Z,13.93
2023-05-08T22:54:49.689Z,13.48
2023-05-08T22:57:16.772Z,13.77
2023-05-08T22:59:43.754Z,14.20
2023-05-08T23:02:10.837Z,13.48
2023-05-08T23:04:38.167Z,14.05
2023-05-08T23:07:05.377Z,12.35
2023-05-08T23:09:32.563Z,13.10
2023-05-08T23:11:59.614Z,12.20
2023-05-08T23:14:26.720Z,12.25
2023-05-08T23:16:54.082Z,11.57
2023-05-08T23:19:21.245Z,12.52
2023-05-08T23:21:48.697Z,12.52
2023-05-08T23:24:15.700Z,13.43
2023-05-08T23:26:42.741Z,13.63
2023-05-08T23:29:09.905Z,14.20
2023-05-08T23:31:37.071Z,13.65
2023-05-08T23:34:04.211Z,12.88
2023-05-08T23:36:32.193Z,14.57
2023-05-08T23:38:59.251Z,14.85
2023-05-08T23:41:26.589Z,13.60
2023-05-08T23:43:53.556Z,13.43
2023-05-08T23:46:20.847Z,13.68
2023-05-08T23:48:48.083Z,13.80
2023-05-08T23:51:15.278Z,13.02
2023-05-08T23:53:42.489Z,14.02
2023-05-08T23:56:09.641Z,12.68
2023-05-08T23:58:36.698Z,12.52
